createdAt,value
2018-04-23T00:00:32.480Z,16.97
2018-04-23T00:01:32.454Z,16.98
2018-04-23T00:02:32.440Z,16.95
2018-04-23T00:03:32.427Z,16.99
2018-04-23T00:04:32.404Z,16.95
2018-04-23T00:05:32.389Z,16.99
2018-04-23T00:06:32.369Z,16.99
2018-04-23T00:07:32.362Z,17.01
2018-04-23T00:08:32.339Z,16.99
2018-04-23T00:09:32.319Z,17.07
2018-04-23T00:10:32.303Z,17.01
2018-04-23T00:11:32.286Z,17.13
2018-04-23T00:12:32.275Z,17.10
2018-04-23T00:13:32.261Z,17.16
2018-04-23T00:14:32.241Z,17.19
2018-04-23T00:15:32.233Z,17.22
2018-04-23T00:16:32.205Z,17.30
2018-04-23T00:17:32.188Z,17.35
2018-04-23T00:18:32.175Z,17.34
2018-04-23T00:19:32.158Z,17.38
2018-04-23T00:20:32.137Z,17.35
2018-04-23T00:21:32.129Z,17.41
2018-04-23T00:22:32.110Z,17.38
2018-04-23T00:23:32.100Z,17.37
2018-04-23T00:24:32.082Z,17.32
2018-04-23T00:25:32.062Z,17.31
2018-04-23T00:26:32.067Z,17.30
2018-04-23T00:27:32.030Z,17.22
2018-04-23T00:28:32.014Z,17.19
2018-04-23T00:29:31.996Z,17.19
2018-04-23T00:30:32.015Z,17.22
2018-04-23T00:31:31.965Z,17.19
2018-04-23T00:32:31.977Z,17.09
2018-04-23T00:33:31.932Z,17.04
2018-04-23T00:34:31.916Z,17.02
2018-04-23T00:35:31.914Z,17.09
2018-04-23T00:36:31.884Z,17.10
2018-04-23T00:37:31.869Z,17.22
2018-04-23T00:38:31.849Z,17.24
2018-04-23T00:39:31.838Z,17.24
2018-04-23T00:40:31.814Z,17.24
2018-04-23T00:41:31.800Z,17.23
2018-04-23T00:42:31.783Z,17.27
2018-04-23T00:43:31.766Z,17.23
2018-04-23T00:44:31.749Z,17.28
2018-04-23T00:45:31.762Z,17.34
2018-04-23T00:46:31.729Z,17.34
2018-04-23T00:47:31.716Z,17.34
2018-04-23T00:48:31.682Z,17.32
2018-04-23T00:49:31.688Z,17.32
2018-04-23T00:50:31.671Z,17.31
2018-04-23T00:51:31.640Z,17.30
2018-04-23T00:52:31.617Z,17.31
2018-04-23T00:53:31.600Z,17.20
2018-04-23T00:54:31.585Z,17.14
2018-04-23T00:55:31.571Z,17.27
2018-04-23T00:56:31.555Z,17.32
2018-04-23T00:57:31.560Z,17.24
2018-04-23T00:58:31.521Z,17.22
2018-04-23T00:59:31.502Z,17.19
2018-04-23T01:00:31.485Z,17.20
2018-04-23T01:01:31.473Z,17.22
2018-04-23T01:02:31.485Z,17.23
2018-04-23T01:03:31.445Z,17.16
2018-04-23T01:04:31.450Z,17.14
2018-04-23T01:05:31.403Z,17.17
2018-04-23T01:06:31.397Z,17.23
2018-04-23T01:07:31.381Z,17.19
2018-04-23T01:08:31.357Z,17.24
2018-04-23T01:09:31.342Z,17.17
2018-04-23T01:10:31.339Z,17.22
2018-04-23T01:11:31.315Z,17.20
2018-04-23T01:12:31.295Z,17.20
2018-04-23T01:13:31.274Z,17.27
2018-04-23T01:14:31.259Z,17.20
2018-04-23T01:15:31.250Z,17.23
2018-04-23T01:16:31.225Z,17.22
2018-04-23T01:17:31.208Z,17.34
2018-04-23T01:18:31.231Z,17.27
2018-04-23T01:19:31.202Z,17.23
2018-04-23T01:20:31.167Z,17.31
2018-04-23T01:21:31.148Z,17.31
2018-04-23T01:22:31.125Z,17.35
2018-04-23T01:23:31.124Z,17.30
2018-04-23T01:24:31.096Z,17.28
2018-04-23T01:25:31.088Z,17.38
2018-04-23T01:26:31.060Z,17.34
2018-04-23T01:27:31.050Z,17.32
2018-04-23T01:28:31.031Z,17.23
2018-04-23T01:29:31.013Z,17.22
2018-04-23T01:30:30.995Z,17.20
2018-04-23T01:31:30.977Z,17.30
2018-04-23T01:32:30.963Z,17.23
2018-04-23T01:33:30.951Z,17.14
2018-04-23T01:34:30.927Z,17.13
2018-04-23T01:35:30.918Z,17.10
2018-04-23T01:36:30.900Z,17.13
2018-04-23T01:37:30.882Z,17.12
2018-04-23T01:38:30.869Z,17.10
2018-04-23T01:39:30.846Z,17.05
2018-04-23T01:40:30.834Z,17.02
2018-04-23T01:41:30.817Z,17.04
2018-04-23T01:42:30.799Z,17.07
2018-04-23T01:43:30.785Z,17.10
2018-04-23T01:44:30.772Z,17.17
2018-04-23T01:45:30.754Z,17.17
2018-04-23T01:46:30.734Z,17.19
2018-04-23T01:47:30.726Z,17.20
2018-04-23T01:48:30.731Z,17.13
2018-04-23T01:49:33.499Z,17.09
2018-04-23T01:50:30.670Z,17.04
2018-04-23T01:51:30.649Z,17.07
2018-04-23T01:52:30.639Z,17.05
2018-04-23T01:53:30.616Z,17.09
2018-04-23T01:54:30.605Z,17.04
2018-04-23T01:55:30.593Z,17.07
2018-04-23T01:56:30.590Z,17.17
2018-04-23T01:57:30.561Z,17.17
2018-04-23T01:58:30.540Z,17.23
2018-04-23T01:59:30.534Z,17.31
2018-04-23T02:00:30.511Z,17.20
2018-04-23T02:01:30.487Z,17.28
2018-04-23T02:02:30.471Z,17.22
2018-04-23T02:03:30.451Z,17.17
2018-04-23T02:04:30.443Z,17.17
2018-04-23T02:05:30.423Z,17.22
2018-04-23T02:06:30.401Z,17.20
2018-04-23T02:07:30.390Z,17.19
2018-04-23T02:08:30.368Z,17.12
2018-04-23T02:09:30.356Z,17.12
2018-04-23T02:10:30.337Z,17.16
2018-04-23T02:11:30.325Z,17.16
2018-04-23T02:12:30.303Z,17.10
2018-04-23T02:13:30.285Z,17.22
2018-04-23T02:14:30.271Z,17.16
2018-04-23T02:15:30.254Z,17.16
2018-04-23T02:16:30.240Z,17.13
2018-04-23T02:17:30.220Z,17.17
2018-04-23T02:18:30.204Z,17.14
2018-04-23T02:19:30.189Z,17.14
2018-04-23T02:20:30.193Z,16.98
2018-04-23T02:21:30.159Z,16.99
2018-04-23T02:22:30.147Z,16.99
2018-04-23T02:23:30.126Z,17.01
2018-04-23T02:24:30.108Z,16.97
2018-04-23T02:25:30.093Z,16.97
2018-04-23T02:26:30.078Z,16.94
2018-04-23T02:27:30.060Z,17.02
2018-04-23T02:28:30.043Z,17.04
2018-04-23T02:29:30.025Z,17.07
2018-04-23T02:30:30.022Z,17.10
2018-04-23T02:31:29.990Z,17.13
2018-04-23T02:32:29.978Z,17.16
2018-04-23T02:33:29.967Z,17.13
2018-04-23T02:34:29.942Z,17.13
2018-04-23T02:35:29.927Z,17.12
2018-04-23T02:36:29.909Z,17.22
2018-04-23T02:37:29.891Z,17.13
2018-04-23T02:38:29.875Z,17.19
2018-04-23T02:39:29.870Z,17.13
2018-04-23T02:40:29.841Z,17.19
2018-04-23T02:41:29.831Z,17.16
2018-04-23T02:42:29.814Z,17.12
2018-04-23T02:43:29.797Z,17.10
2018-04-23T02:44:29.786Z,17.10
2018-04-23T02:45:29.758Z,17.04
2018-04-23T02:46:29.742Z,17.04
2018-04-23T02:47:29.737Z,17.02
2018-04-23T02:48:29.715Z,17.02
2018-04-23T02:49:29.698Z,17.07
2018-04-23T02:50:29.682Z,17.13
2018-04-23T02:51:29.670Z,17.04
2018-04-23T02:52:29.644Z,17.04
2018-04-23T02:53:29.627Z,16.95
2018-04-23T02:54:29.611Z,17.04
2018-04-23T02:55:29.594Z,16.92
2018-04-23T02:56:29.578Z,17.02
2018-04-23T02:57:29.565Z,16.99
2018-04-23T02:58:29.546Z,16.92
2018-04-23T02:59:29.541Z,17.04
2018-04-23T03:00:29.514Z,17.01
2018-04-23T03:01:29.497Z,16.98
2018-04-23T03:02:29.478Z,16.95
2018-04-23T03:03:29.465Z,16.97
2018-04-23T03:04:29.445Z,16.94
2018-04-23T03:05:29.438Z,16.99
2018-04-23T03:06:29.412Z,16.97
2018-04-23T03:07:29.399Z,16.86
2018-04-23T03:08:29.377Z,16.86
2018-04-23T03:09:29.359Z,16.86
2018-04-23T03:10:29.346Z,16.92
2018-04-23T03:11:29.337Z,16.87
2018-04-23T03:12:29.321Z,16.87
2018-04-23T03:13:29.294Z,16.82
2018-04-23T03:14:29.278Z,16.76
2018-04-23T03:15:29.265Z,16.77
2018-04-23T03:16:29.254Z,16.80
2018-04-23T03:17:29.234Z,16.68
2018-04-23T03:18:29.211Z,16.74
2018-04-23T03:19:29.251Z,16.72
2018-04-23T03:20:37.815Z,16.80
2018-04-23T03:22:22.684Z,16.77
2018-04-23T03:23:22.590Z,16.83
2018-04-23T03:25:17.473Z,16.76
2018-04-23T03:26:17.459Z,16.77
2018-04-23T03:28:10.878Z,16.72
2018-04-23T03:29:10.764Z,16.77
2018-04-23T03:31:05.184Z,16.62
2018-04-23T03:32:05.125Z,16.66
2018-04-23T03:33:58.553Z,16.66
2018-04-23T03:34:58.475Z,16.72
2018-04-23T03:36:57.366Z,16.51
2018-04-23T03:37:57.340Z,16.62
2018-04-23T03:39:50.666Z,16.58
2018-04-23T03:40:50.636Z,16.55
2018-04-23T03:42:44.028Z,16.51
2018-04-23T03:43:43.954Z,16.49
2018-04-23T03:45:37.316Z,16.51
2018-04-23T03:46:37.282Z,16.59
2018-04-23T03:47:37.324Z,16.37
2018-04-23T03:48:37.263Z,16.50
2018-04-23T03:49:37.289Z,16.44
2018-04-23T03:50:37.223Z,16.43
2018-04-23T03:51:37.207Z,16.43
2018-04-23T03:52:37.185Z,16.37
2018-04-23T03:53:37.159Z,16.37
2018-04-23T03:54:37.141Z,16.37
2018-04-23T03:55:37.142Z,16.39
2018-04-23T03:56:37.111Z,16.31
2018-04-23T03:57:37.114Z,16.32
2018-04-23T03:58:37.076Z,16.31
2018-04-23T03:59:37.087Z,16.31
2018-04-23T04:00:37.052Z,16.36
2018-04-23T04:01:44.793Z,16.22
2018-04-23T04:03:30.434Z,16.13
2018-04-23T04:04:30.380Z,16.10
2018-04-23T04:06:23.775Z,16.09
2018-04-23T04:07:23.704Z,16.05
2018-04-23T04:09:18.138Z,16.12
2018-04-23T04:10:18.037Z,16.12
2018-04-23T04:12:11.457Z,15.96
2018-04-23T04:13:11.381Z,16.02
2018-04-23T04:15:04.829Z,16.05
2018-04-23T04:16:04.712Z,15.99
2018-04-23T04:17:58.132Z,15.90
2018-04-23T04:18:58.042Z,15.90
2018-04-23T04:19:58.021Z,15.94
2018-04-23T04:20:58.018Z,15.91
2018-04-23T04:21:57.995Z,15.90
2018-04-23T04:22:57.984Z,15.96
2018-04-23T04:23:57.974Z,15.94
2018-04-23T04:24:57.943Z,16.03
2018-04-23T04:25:57.922Z,16.06
2018-04-23T04:26:57.938Z,16.05
2018-04-23T04:27:57.889Z,15.99
2018-04-23T04:28:57.869Z,15.96
2018-04-23T04:29:57.878Z,15.98
2018-04-23T04:30:57.845Z,15.94
2018-04-23T04:31:57.829Z,15.99
2018-04-23T04:32:57.809Z,15.92
2018-04-23T04:33:57.866Z,15.91
2018-04-23T04:34:57.780Z,15.84
2018-04-23T04:35:57.770Z,15.92
2018-04-23T04:36:57.731Z,15.92
2018-04-23T04:37:57.730Z,15.98
2018-04-23T04:38:57.699Z,15.90
2018-04-23T04:39:57.695Z,15.87
2018-04-23T04:40:57.680Z,15.80
2018-04-23T04:41:57.679Z,15.84
2018-04-23T04:42:57.634Z,15.88
2018-04-23T04:43:57.672Z,15.87
2018-04-23T04:44:57.654Z,15.87
2018-04-23T04:45:57.580Z,15.78
2018-04-23T04:47:05.360Z,15.85
2018-04-23T04:48:52.021Z,15.88
2018-04-23T04:49:51.937Z,15.81
2018-04-23T04:51:45.293Z,15.90
2018-04-23T04:52:45.245Z,15.88
2018-04-23T04:54:43.811Z,15.88
2018-04-23T04:55:43.736Z,15.83
2018-04-23T04:56:43.599Z,15.80
2018-04-23T04:57:43.839Z,15.69
2018-04-23T04:58:43.565Z,15.69
2018-04-23T04:59:43.631Z,15.76
2018-04-23T05:00:43.526Z,15.65
2018-04-23T05:01:43.529Z,15.69
2018-04-23T05:02:51.783Z,15.65
2018-04-23T05:04:39.691Z,15.70
2018-04-23T05:05:38.181Z,15.72
2018-04-23T05:07:31.285Z,15.76
2018-04-23T05:08:31.604Z,15.80
2018-04-23T05:10:24.664Z,15.85
2018-04-23T05:11:24.350Z,15.90
2018-04-23T05:13:18.118Z,15.92
2018-04-23T05:14:17.605Z,15.94
2018-04-23T05:16:13.965Z,15.98
2018-04-23T05:17:14.020Z,15.99
2018-04-23T05:18:13.874Z,15.98
2018-04-23T05:19:14.073Z,15.96
2018-04-23T05:20:13.829Z,16.00
2018-04-23T05:21:13.815Z,15.99
2018-04-23T05:22:13.803Z,16.03
2018-04-23T05:23:13.781Z,16.00
2018-04-23T05:24:13.766Z,15.94
2018-04-23T05:25:13.758Z,16.02
2018-04-23T05:26:13.725Z,15.94
2018-04-23T05:27:13.711Z,15.98
2018-04-23T05:28:13.697Z,15.91
2018-04-23T05:29:13.682Z,15.85
2018-04-23T05:30:13.660Z,15.76
2018-04-23T05:31:13.644Z,15.84
2018-04-23T05:32:13.625Z,15.80
2018-04-23T05:33:13.609Z,15.88
2018-04-23T05:34:13.592Z,15.85
2018-04-23T05:35:13.573Z,15.80
2018-04-23T05:36:13.555Z,15.76
2018-04-23T05:37:13.545Z,15.90
2018-04-23T05:38:13.519Z,15.87
2018-04-23T05:39:13.505Z,15.87
2018-04-23T05:40:13.485Z,15.78
2018-04-23T05:41:13.470Z,15.78
2018-04-23T05:42:13.452Z,15.73
2018-04-23T05:43:13.450Z,15.80
2018-04-23T05:44:13.431Z,15.87
2018-04-23T05:45:13.406Z,15.92
2018-04-23T05:46:13.387Z,15.94
2018-04-23T05:47:13.364Z,15.96
2018-04-23T05:48:13.353Z,16.02
2018-04-23T05:49:13.333Z,16.05
2018-04-23T05:50:13.315Z,16.09
2018-04-23T05:51:13.307Z,16.08
2018-04-23T05:52:13.277Z,16.03
2018-04-23T05:53:13.264Z,16.10
2018-04-23T05:54:13.249Z,15.90
2018-04-23T05:55:13.227Z,15.91
2018-04-23T05:56:13.215Z,15.83
2018-04-23T05:57:13.191Z,15.80
2018-04-23T05:58:13.184Z,15.80
2018-04-23T05:59:13.161Z,15.72
2018-04-23T06:00:13.150Z,15.67
2018-04-23T06:01:13.129Z,15.70
2018-04-23T06:02:13.120Z,15.67
2018-04-23T06:03:13.093Z,15.70
2018-04-23T06:04:13.074Z,15.72
2018-04-23T06:05:13.095Z,15.75
2018-04-23T06:06:13.040Z,15.69
2018-04-23T06:07:13.022Z,15.66
2018-04-23T06:08:13.003Z,15.63
2018-04-23T06:09:12.988Z,15.69
2018-04-23T06:10:12.969Z,15.67
2018-04-23T06:11:12.952Z,15.62
2018-04-23T06:12:12.936Z,15.62
2018-04-23T06:13:12.916Z,15.47
2018-04-23T06:14:12.898Z,15.48
2018-04-23T06:15:12.886Z,15.44
2018-04-23T06:16:12.867Z,15.47
2018-04-23T06:17:15.442Z,15.44
2018-04-23T06:18:12.828Z,15.51
2018-04-23T06:19:12.812Z,15.50
2018-04-23T06:20:12.801Z,15.45
2018-04-23T06:21:12.780Z,15.50
2018-04-23T06:22:12.773Z,15.63
2018-04-23T06:23:12.743Z,15.66
2018-04-23T06:24:12.731Z,15.69
2018-04-23T06:25:12.710Z,15.73
2018-04-23T06:26:12.709Z,15.78
2018-04-23T06:27:12.674Z,15.80
2018-04-23T06:28:12.686Z,15.84
2018-04-23T06:29:12.638Z,15.91
2018-04-23T06:30:12.634Z,15.88
2018-04-23T06:31:12.605Z,15.91
2018-04-23T06:32:12.589Z,15.90
2018-04-23T06:33:12.573Z,15.91
2018-04-23T06:34:12.599Z,15.88
2018-04-23T06:35:12.532Z,15.87
2018-04-23T06:36:12.517Z,15.90
2018-04-23T06:37:12.504Z,15.73
2018-04-23T06:38:12.484Z,15.81
2018-04-23T06:39:12.463Z,15.78
2018-04-23T06:40:12.462Z,15.80
2018-04-23T06:41:12.430Z,15.81
2018-04-23T06:42:12.412Z,15.80
2018-04-23T06:43:12.395Z,15.88
2018-04-23T06:44:12.379Z,15.84
2018-04-23T06:45:12.366Z,15.81
2018-04-23T06:46:12.396Z,15.72
2018-04-23T06:47:12.326Z,15.63
2018-04-23T06:48:12.308Z,15.67
2018-04-23T06:49:12.296Z,15.63
2018-04-23T06:50:12.278Z,15.69
2018-04-23T06:51:12.269Z,15.69
2018-04-23T06:52:12.238Z,15.70
2018-04-23T06:53:12.226Z,15.69
2018-04-23T06:54:12.206Z,15.63
2018-04-23T06:55:12.191Z,15.63
2018-04-23T06:56:12.175Z,15.60
2018-04-23T06:57:12.154Z,15.59
2018-04-23T06:58:12.137Z,15.52
2018-04-23T06:59:12.119Z,15.55
2018-04-23T07:00:12.102Z,15.63
2018-04-23T07:01:12.084Z,15.55
2018-04-23T07:02:12.069Z,15.62
2018-04-23T07:03:12.057Z,15.62
2018-04-23T07:04:12.034Z,15.60
2018-04-23T07:05:12.036Z,15.70
2018-04-23T07:06:12.007Z,15.69
2018-04-23T07:07:11.980Z,15.69
2018-04-23T07:08:11.967Z,15.62
2018-04-23T07:09:11.951Z,15.50
2018-04-23T07:10:11.934Z,15.67
2018-04-23T07:11:11.911Z,15.66
2018-04-23T07:12:11.901Z,15.63
2018-04-23T07:13:11.878Z,15.52
2018-04-23T07:14:11.864Z,15.57
2018-04-23T07:15:11.842Z,15.59
2018-04-23T07:16:11.831Z,15.48
2018-04-23T07:17:11.810Z,15.59
2018-04-23T07:18:11.788Z,15.51
2018-04-23T07:19:11.771Z,15.43
2018-04-23T07:20:11.751Z,15.48
2018-04-23T07:21:11.737Z,15.47
2018-04-23T07:22:11.723Z,15.45
2018-04-23T07:23:11.700Z,15.48
2018-04-23T07:24:11.685Z,15.45
2018-04-23T07:25:11.666Z,15.51
2018-04-23T07:26:11.649Z,15.47
2018-04-23T07:27:11.632Z,15.52
2018-04-23T07:28:11.616Z,15.65
2018-04-23T07:29:11.600Z,15.51
2018-04-23T07:30:11.577Z,15.57
2018-04-23T07:31:11.561Z,15.57
2018-04-23T07:32:11.545Z,15.54
2018-04-23T07:33:11.529Z,15.65
2018-04-23T07:34:11.514Z,15.69
2018-04-23T07:35:11.493Z,15.63
2018-04-23T07:36:11.474Z,15.72
2018-04-23T07:37:11.461Z,15.63
2018-04-23T07:38:11.446Z,15.78
2018-04-23T07:39:11.426Z,15.65
2018-04-23T07:40:11.404Z,15.70
2018-04-23T07:41:11.386Z,15.72
2018-04-23T07:42:11.379Z,15.70
2018-04-23T07:43:11.351Z,15.67
2018-04-23T07:44:11.357Z,15.72
2018-04-23T07:45:11.323Z,15.80
2018-04-23T07:46:11.304Z,15.88
2018-04-23T07:47:11.306Z,15.92
2018-04-23T07:48:11.270Z,15.91
2018-04-23T07:49:11.250Z,15.90
2018-04-23T07:50:11.232Z,15.90
2018-04-23T07:51:11.213Z,15.90
2018-04-23T07:52:11.192Z,15.96
2018-04-23T07:53:11.176Z,15.98
2018-04-23T07:54:11.205Z,16.12
2018-04-23T07:55:11.143Z,16.13
2018-04-23T07:56:11.125Z,16.05
2018-04-23T07:57:11.121Z,16.21
2018-04-23T07:58:11.127Z,16.24
2018-04-23T07:59:11.069Z,16.24
2018-04-23T08:00:11.050Z,16.29
2018-04-23T08:01:11.134Z,16.32
2018-04-23T08:02:11.021Z,16.36
2018-04-23T08:03:11.002Z,16.47
2018-04-23T08:04:10.983Z,16.54
2018-04-23T08:05:10.964Z,16.50
2018-04-23T08:06:10.947Z,16.49
2018-04-23T08:07:10.931Z,16.49
2018-04-23T08:08:10.920Z,16.44
2018-04-23T08:09:10.895Z,16.41
2018-04-23T08:10:10.877Z,16.61
2018-04-23T08:11:10.862Z,16.57
2018-04-23T08:12:10.858Z,16.66
2018-04-23T08:13:10.826Z,16.66
2018-04-23T08:14:10.804Z,16.65
2018-04-23T08:15:10.788Z,16.61
2018-04-23T08:16:10.769Z,16.58
2018-04-23T08:17:10.757Z,16.61
2018-04-23T08:18:10.738Z,16.69
2018-04-23T08:19:10.729Z,16.73
2018-04-23T08:20:10.709Z,16.83
2018-04-23T08:21:10.683Z,16.89
2018-04-23T08:22:10.668Z,16.91
2018-04-23T08:23:10.661Z,16.91
2018-04-23T08:24:10.635Z,17.01
2018-04-23T08:25:10.616Z,17.04
2018-04-23T08:26:10.599Z,17.09
2018-04-23T08:27:10.586Z,17.16
2018-04-23T08:28:10.569Z,17.12
2018-04-23T08:29:10.554Z,17.12
2018-04-23T08:30:10.531Z,17.19
2018-04-23T08:31:10.512Z,17.12
2018-04-23T08:32:10.503Z,17.07
2018-04-23T08:33:10.479Z,17.07
2018-04-23T08:34:10.460Z,17.05
2018-04-23T08:35:10.449Z,17.02
2018-04-23T08:36:10.428Z,17.01
2018-04-23T08:37:10.411Z,17.02
2018-04-23T08:38:10.411Z,16.98
2018-04-23T08:39:10.377Z,16.87
2018-04-23T08:40:10.367Z,17.01
2018-04-23T08:41:10.343Z,16.94
2018-04-23T08:42:10.330Z,16.92
2018-04-23T08:43:10.308Z,17.02
2018-04-23T08:44:10.293Z,16.97
2018-04-23T08:45:10.276Z,16.97
2018-04-23T08:46:10.262Z,16.82
2018-04-23T08:47:10.248Z,16.98
2018-04-23T08:48:10.283Z,16.99
2018-04-23T08:49:10.208Z,17.16
2018-04-23T08:50:10.193Z,17.14
2018-04-23T08:51:10.175Z,17.41
2018-04-23T08:52:10.164Z,17.42
2018-04-23T08:53:10.142Z,17.52
2018-04-23T08:54:10.132Z,17.69
2018-04-23T08:55:10.110Z,17.75
2018-04-23T08:56:10.096Z,17.69
2018-04-23T08:57:10.074Z,17.82
2018-04-23T08:58:10.061Z,17.78
2018-04-23T08:59:10.044Z,17.87
2018-04-23T09:00:10.022Z,17.94
2018-04-23T09:01:10.009Z,18.02
2018-04-23T09:02:09.997Z,17.84
2018-04-23T09:03:09.977Z,17.66
2018-04-23T09:04:09.958Z,17.54
2018-04-23T09:05:09.941Z,17.59
2018-04-23T09:06:09.927Z,17.75
2018-04-23T09:07:09.908Z,17.94
2018-04-23T09:08:09.919Z,17.95
2018-04-23T09:09:09.881Z,18.11
2018-04-23T09:10:09.862Z,18.19
2018-04-23T09:11:09.868Z,18.19
2018-04-23T09:12:09.824Z,18.02
2018-04-23T09:13:09.809Z,18.00
2018-04-23T09:14:09.794Z,18.03
2018-04-23T09:15:09.778Z,17.94
2018-04-23T09:16:09.758Z,17.90
2018-04-23T09:17:09.746Z,18.00
2018-04-23T09:18:09.726Z,17.97
2018-04-23T09:19:09.709Z,17.93
2018-04-23T09:20:09.694Z,17.86
2018-04-23T09:21:09.678Z,17.87
2018-04-23T09:22:09.661Z,17.79
2018-04-23T09:23:09.644Z,17.98
2018-04-23T09:24:09.655Z,17.98
2018-04-23T09:25:09.612Z,18.09
2018-04-23T09:26:09.601Z,18.12
2018-04-23T09:27:09.577Z,18.13
2018-04-23T09:28:09.564Z,18.15
2018-04-23T09:29:09.549Z,18.15
2018-04-23T09:30:09.528Z,18.31
2018-04-23T09:31:09.523Z,18.27
2018-04-23T09:32:09.497Z,18.36
2018-04-23T09:33:09.480Z,18.36
2018-04-23T09:34:09.470Z,18.26
2018-04-23T09:35:09.452Z,18.30
2018-04-23T09:36:09.433Z,18.27
2018-04-23T09:37:09.413Z,18.36
2018-04-23T09:38:09.400Z,18.33
2018-04-23T09:39:09.383Z,18.09
2018-04-23T09:40:09.367Z,18.08
2018-04-23T09:41:10.076Z,18.16
2018-04-23T09:42:09.335Z,18.31
2018-04-23T09:43:09.316Z,18.33
2018-04-23T09:44:09.311Z,18.26
2018-04-23T09:45:09.290Z,18.28
2018-04-23T09:46:10.075Z,18.16
2018-04-23T09:47:09.257Z,18.26
2018-04-23T09:48:09.237Z,18.41
2018-04-23T09:49:09.224Z,18.27
2018-04-23T09:50:09.243Z,18.21
2018-04-23T09:51:09.192Z,18.23
2018-04-23T09:52:09.171Z,18.30
2018-04-23T09:53:09.159Z,18.48
2018-04-23T09:54:09.140Z,18.60
2018-04-23T09:55:09.123Z,18.60
2018-04-23T09:56:09.107Z,18.64
2018-04-23T09:57:09.091Z,18.68
2018-04-23T09:58:09.079Z,18.78
2018-04-23T09:59:09.061Z,18.85
2018-04-23T10:00:09.046Z,18.98
2018-04-23T10:01:09.047Z,18.92
2018-04-23T10:02:09.013Z,18.79
2018-04-23T10:03:09.001Z,18.86
2018-04-23T10:04:08.980Z,19.07
2018-04-23T10:05:08.980Z,19.29
2018-04-23T10:06:09.029Z,19.20
2018-04-23T10:07:08.934Z,19.12
2018-04-23T10:08:08.920Z,19.05
2018-04-23T10:09:08.906Z,19.07
2018-04-23T10:10:08.889Z,18.97
2018-04-23T10:11:08.867Z,18.52
2018-04-23T10:12:08.901Z,18.37
2018-04-23T10:13:08.873Z,18.37
2018-04-23T10:14:08.821Z,18.24
2018-04-23T10:15:08.804Z,18.13
2018-04-23T10:16:08.787Z,17.98
2018-04-23T10:17:08.783Z,17.93
2018-04-23T10:18:08.804Z,18.09
2018-04-23T10:19:08.746Z,18.41
2018-04-23T10:20:08.726Z,18.34
2018-04-23T10:21:08.709Z,18.43
2018-04-23T10:22:08.704Z,18.57
2018-04-23T10:23:08.677Z,18.82
2018-04-23T10:24:08.663Z,19.08
2018-04-23T10:25:08.650Z,19.27
2018-04-23T10:26:08.634Z,19.41
2018-04-23T10:27:08.619Z,19.17
2018-04-23T10:28:08.605Z,19.12
2018-04-23T10:29:08.586Z,19.12
2018-04-23T10:30:08.578Z,19.49
2018-04-23T10:31:08.557Z,19.67
2018-04-23T10:32:08.544Z,20.33
2018-04-23T10:33:08.527Z,20.77
2018-04-23T10:34:08.513Z,20.64
2018-04-23T10:35:08.496Z,20.52
2018-04-23T10:36:08.482Z,20.32
2018-04-23T10:37:08.466Z,20.34
2018-04-23T10:38:08.477Z,19.94
2018-04-23T10:39:08.469Z,20.03
2018-04-23T10:40:08.428Z,20.85
2018-04-23T10:41:08.412Z,21.25
2018-04-23T10:42:08.397Z,21.32
2018-04-23T10:43:08.381Z,20.93
2018-04-23T10:44:08.368Z,20.26
2018-04-23T10:45:08.358Z,19.87
2018-04-23T10:46:08.341Z,19.71
2018-04-23T10:47:08.332Z,21.01
2018-04-23T10:48:08.311Z,21.19
2018-04-23T10:49:08.299Z,21.01
2018-04-23T10:50:08.284Z,20.49
2018-04-23T10:51:08.353Z,21.29
2018-04-23T10:52:08.257Z,20.64
2018-04-23T10:53:08.250Z,21.63
2018-04-23T10:54:08.249Z,23.21
2018-04-23T10:55:08.219Z,23.82
2018-04-23T10:56:08.296Z,24.75
2018-04-23T10:57:08.248Z,25.88
2018-04-23T10:58:08.183Z,26.41
2018-04-23T10:59:08.168Z,26.44
2018-04-23T11:00:08.163Z,26.27
2018-04-23T11:01:08.144Z,25.31
2018-04-23T11:02:08.131Z,25.91
2018-04-23T11:03:08.129Z,25.00
2018-04-23T11:04:08.108Z,24.40
2018-04-23T11:05:08.103Z,22.93
2018-04-23T11:06:08.087Z,22.30
2018-04-23T11:07:08.077Z,22.08
2018-04-23T11:08:08.068Z,21.75
2018-04-23T11:09:08.054Z,22.77
2018-04-23T11:10:08.046Z,22.98
2018-04-23T11:11:08.043Z,22.08
2018-04-23T11:12:08.026Z,22.40
2018-04-23T11:13:08.014Z,23.55
2018-04-23T11:14:08.002Z,24.14
2018-04-23T11:15:07.995Z,23.26
2018-04-23T11:16:07.980Z,22.41
2018-04-23T11:17:07.973Z,22.21
2018-04-23T11:18:07.964Z,22.84
2018-04-23T11:19:07.959Z,23.54
2018-04-23T11:20:07.945Z,24.55
2018-04-23T11:21:07.949Z,24.71
2018-04-23T11:22:07.953Z,24.41
2018-04-23T11:23:07.939Z,23.95
2018-04-23T11:24:07.911Z,25.21
2018-04-23T11:25:07.905Z,24.59
2018-04-23T11:26:07.891Z,25.76
2018-04-23T11:27:07.888Z,24.62
2018-04-23T11:28:07.886Z,25.37
2018-04-23T11:29:07.883Z,26.33
2018-04-23T11:30:07.881Z,26.27
2018-04-23T11:31:07.868Z,27.48
2018-04-23T11:32:07.851Z,27.94
2018-04-23T11:33:07.851Z,28.41
2018-04-23T11:34:07.826Z,28.49
2018-04-23T11:35:07.812Z,29.16
2018-04-23T11:36:07.815Z,29.84
2018-04-23T11:37:07.811Z,29.55
2018-04-23T11:38:07.800Z,28.38
2018-04-23T11:39:07.785Z,28.60
2018-04-23T11:40:07.855Z,28.20
2018-04-23T11:41:07.777Z,28.41
2018-04-23T11:42:07.771Z,27.95
2018-04-23T11:43:07.765Z,29.31
2018-04-23T11:44:07.759Z,28.93
2018-04-23T11:45:07.776Z,28.82
2018-04-23T11:46:07.755Z,29.52
2018-04-23T11:47:07.748Z,29.77
2018-04-23T11:48:07.743Z,30.51
2018-04-23T11:49:07.743Z,31.17
2018-04-23T11:50:07.777Z,29.81
2018-04-23T11:51:15.745Z,29.13
2018-04-23T11:53:01.419Z,29.13
2018-04-23T11:54:01.166Z,28.59
2018-04-23T11:55:55.663Z,27.90
2018-04-23T11:56:55.668Z,27.22
2018-04-23T11:58:49.110Z,27.41
2018-04-23T11:59:48.927Z,28.12
2018-04-23T12:01:47.325Z,28.06
2018-04-23T12:02:47.238Z,27.86
2018-04-23T12:03:47.299Z,27.53
2018-04-23T12:04:47.230Z,27.26
2018-04-23T12:05:47.231Z,28.18
2018-04-23T12:06:47.225Z,26.26
2018-04-23T12:07:47.225Z,27.26
2018-04-23T12:08:47.221Z,27.66
2018-04-23T12:09:47.216Z,28.50
2018-04-23T12:10:54.889Z,28.47
2018-04-23T12:12:40.638Z,25.33
2018-04-23T12:13:40.588Z,25.21
2018-04-23T12:15:33.992Z,25.31
2018-04-23T12:16:33.974Z,26.31
2018-04-23T12:18:27.936Z,25.44
2018-04-23T12:19:27.338Z,24.34
2018-04-23T12:21:20.715Z,25.14
2018-04-23T12:22:20.718Z,26.73
2018-04-23T12:24:15.156Z,26.27
2018-04-23T12:25:15.065Z,24.89
2018-04-23T12:27:08.496Z,24.96
2018-04-23T12:28:08.420Z,23.64
2018-04-23T12:30:01.822Z,23.14
2018-04-23T12:31:01.783Z,22.58
2018-04-23T12:32:55.210Z,21.94
2018-04-23T12:33:55.268Z,22.61
2018-04-23T12:35:51.385Z,24.48
2018-04-23T12:36:51.392Z,25.34
2018-04-23T12:38:44.805Z,26.91
2018-04-23T12:39:44.755Z,26.41
2018-04-23T12:41:38.114Z,28.16
2018-04-23T12:42:38.091Z,28.64
2018-04-23T12:44:31.535Z,29.05
2018-04-23T12:45:31.467Z,29.15
2018-04-23T12:47:24.921Z,27.67
2018-04-23T12:48:24.853Z,28.15
2018-04-23T12:50:18.243Z,27.16
2018-04-23T12:51:18.221Z,27.25
2018-04-23T12:53:13.290Z,28.59
2018-04-23T12:54:13.225Z,28.68
2018-04-23T12:56:06.605Z,27.55
2018-04-23T12:57:06.591Z,27.08
2018-04-23T12:59:00.478Z,27.93
2018-04-23T13:00:00.018Z,28.28
2018-04-23T13:01:54.504Z,28.01
2018-04-23T13:02:54.358Z,29.12
2018-04-23T13:04:48.036Z,28.46
2018-04-23T13:05:47.989Z,28.80
2018-04-23T13:07:41.435Z,25.85
2018-04-23T13:08:41.376Z,26.92
2018-04-23T13:10:34.737Z,27.97
2018-04-23T13:11:36.355Z,28.80
2018-04-23T13:13:29.176Z,31.00
2018-04-23T13:14:29.098Z,30.33
2018-04-23T13:16:22.497Z,29.68
2018-04-23T13:17:22.481Z,28.83
2018-04-23T13:19:15.955Z,27.83
2018-04-23T13:20:15.874Z,27.38
2018-04-23T13:22:09.255Z,25.93
2018-04-23T13:23:09.291Z,24.58
2018-04-23T13:25:02.675Z,25.46
2018-04-23T13:26:02.646Z,26.74
2018-04-23T13:27:56.042Z,26.64
2018-04-23T13:28:55.980Z,27.23
2018-04-23T13:30:50.364Z,28.16
2018-04-23T13:31:50.346Z,27.97
2018-04-23T13:33:43.780Z,27.61
2018-04-23T13:34:43.714Z,27.57
2018-04-23T13:36:37.112Z,29.35
2018-04-23T13:37:37.099Z,30.32
2018-04-23T13:39:30.526Z,31.14
2018-04-23T13:40:30.477Z,30.99
2018-04-23T13:41:30.462Z,31.37
2018-04-23T13:42:30.492Z,30.65
2018-04-23T13:43:30.453Z,29.03
2018-04-23T13:44:30.448Z,27.72